sensor_id;sensor_type;location;lat;lon;timestamp;P1;durP1;ratioP1;P2;durP2;ratioP2
13388;SDS011;6764;53.250;10.410;2024-01-06T00:01:28;7.83;;;6.47;;
13388;SDS011;6764;53.250;10.410;2024-01-06T00:03:54;9.53;;;6.30;;
13388;SDS011;6764;53.250;10.410;2024-01-06T00:06:20;6.50;;;5.90;;
13388;SDS011;6764;53.250;10.410;2024-01-06T00:08:46;8.47;;;6.50;;
13388;SDS011;6764;53.250;10.410;2024-01-06T00:11:18;8.20;;;7.00;;
13388;SDS011;6764;53.250;10.410;2024-01-06T00:13:44;9.33;;;6.80;;
13388;SDS011;6764;53.250;10.410;2024-01-06T00:16:10;8.07;;;6.77;;
13388;SDS011;6764;53.250;10.410;2024-01-06T00:18:35;9.30;;;6.73;;
13388;SDS011;6764;53.250;10.410;2024-01-06T00:21:01;7.87;;;6.67;;
13388;SDS011;6764;53.250;10.410;2024-01-06T00:23:27;8.13;;;6.63;;
13388;SDS011;6764;53.250;10.410;2024-01-06T00:25:52;9.17;;;7.17;;
13388;SDS011;6764;53.250;10.410;2024-01-06T00:28:18;8.67;;;6.97;;
13388;SDS011;6764;53.250;10.410;2024-01-06T00:30:43;9.27;;;6.47;;
13388;SDS011;6764;53.250;10.410;2024-01-06T00:33:09;9.13;;;7.23;;
13388;SDS011;6764;53.250;10.410;2024-01-06T00:35:34;8.90;;;7.23;;
13388;SDS011;6764;53.250;10.410;2024-01-06T00:38:00;9.50;;;6.90;;
13388;SDS011;6764;53.250;10.410;2024-01-06T00:40:26;9.37;;;7.57;;
13388;SDS011;6764;53.250;10.410;2024-01-06T00:42:51;13.37;;;8.67;;
13388;SDS011;6764;53.250;10.410;2024-01-06T00:45:17;9.37;;;7.83;;
13388;SDS011;6764;53.250;10.410;2024-01-06T00:47:43;9.37;;;7.57;;
13388;SDS011;6764;53.250;10.410;2024-01-06T00:50:08;12.03;;;7.97;;
13388;SDS011;6764;53.250;10.410;2024-01-06T00:52:34;9.77;;;7.30;;
13388;SDS011;6764;53.250;10.410;2024-01-06T00:54:59;10.70;;;8.07;;
13388;SDS011;6764;53.250;10.410;2024-01-06T00:57:25;10.00;;;8.13;;
13388;SDS011;6764;53.250;10.410;2024-01-06T00:59:51;11.50;;;8.50;;
13388;SDS011;6764;53.250;10.410;2024-01-06T01:02:16;10.20;;;7.43;;
13388;SDS011;6764;53.250;10.410;2024-01-06T01:04:42;10.60;;;7.73;;
13388;SDS011;6764;53.250;10.410;2024-01-06T01:07:07;11.37;;;7.60;;
13388;SDS011;6764;53.250;10.410;2024-01-06T01:09:34;10.33;;;7.93;;
13388;SDS011;6764;53.250;10.410;2024-01-06T01:12:00;9.73;;;7.73;;
13388;SDS011;6764;53.250;10.410;2024-01-06T01:14:25;11.73;;;7.77;;
13388;SDS011;6764;53.250;10.410;2024-01-06T01:16:51;13.33;;;7.80;;
13388;SDS011;6764;53.250;10.410;2024-01-06T01:19:17;8.60;;;7.70;;
13388;SDS011;6764;53.250;10.410;2024-01-06T01:21:42;12.43;;;7.90;;
13388;SDS011;6764;53.250;10.410;2024-01-06T01:24:08;8.77;;;6.93;;
13388;SDS011;6764;53.250;10.410;2024-01-06T01:26:33;8.03;;;6.27;;
13388;SDS011;6764;53.250;10.410;2024-01-06T01:28:59;8.13;;;6.70;;
13388;SDS011;6764;53.250;10.410;2024-01-06T01:31:25;8.60;;;6.90;;
13388;SDS011;6764;53.250;10.410;2024-01-06T01:33:50;9.10;;;7.33;;
13388;SDS011;6764;53.250;10.410;2024-01-06T01:36:16;9.33;;;6.70;;
13388;SDS011;6764;53.250;10.410;2024-01-06T01:38:43;8.67;;;7.30;;
13388;SDS011;6764;53.250;10.410;2024-01-06T01:41:08;11.03;;;7.23;;
13388;SDS011;6764;53.250;10.410;2024-01-06T01:43:34;9.43;;;7.13;;
13388;SDS011;6764;53.250;10.410;2024-01-06T01:46:00;9.53;;;6.87;;
13388;SDS011;6764;53.250;10.410;2024-01-06T01:48:26;7.67;;;6.67;;
13388;SDS011;6764;53.250;10.410;2024-01-06T01:50:52;9.07;;;7.20;;
13388;SDS011;6764;53.250;10.410;2024-01-06T01:53:18;10.67;;;6.83;;
13388;SDS011;6764;53.250;10.410;2024-01-06T01:55:45;9.97;;;7.37;;
13388;SDS011;6764;53.250;10.410;2024-01-06T01:58:12;8.10;;;6.80;;
13388;SDS011;6764;53.250;10.410;2024-01-06T02:00:39;9.57;;;6.83;;
13388;SDS011;6764;53.250;10.410;2024-01-06T02:03:05;9.13;;;7.00;;
13388;SDS011;6764;53.250;10.410;2024-01-06T02:05:31;9.60;;;6.67;;
13388;SDS011;6764;53.250;10.410;2024-01-06T02:07:57;8.97;;;7.33;;
13388;SDS011;6764;53.250;10.410;2024-01-06T02:10:22;9.10;;;6.93;;
13388;SDS011;6764;53.250;10.410;2024-01-06T02:12:48;9.07;;;7.47;;
13388;SDS011;6764;53.250;10.410;2024-01-06T02:15:16;10.77;;;7.93;;
13388;SDS011;6764;53.250;10.410;2024-01-06T02:17:42;10.93;;;7.63;;
13388;SDS011;6764;53.250;10.410;2024-01-06T02:20:08;11.57;;;6.97;;
13388;SDS011;6764;53.250;10.410;2024-01-06T02:22:35;8.83;;;6.50;;
13388;SDS011;6764;53.250;10.410;2024-01-06T02:25:02;8.60;;;6.90;;
13388;SDS011;6764;53.250;10.410;2024-01-06T02:27:32;9.50;;;7.60;;
13388;SDS011;6764;53.250;10.410;2024-01-06T02:29:58;10.27;;;7.73;;
13388;SDS011;6764;53.250;10.410;2024-01-06T02:32:23;10.03;;;7.67;;
13388;SDS011;6764;53.250;10.410;2024-01-06T02:34:49;8.67;;;6.90;;
13388;SDS011;6764;53.250;10.410;2024-01-06T02:37:15;9.37;;;8.33;;
13388;SDS011;6764;53.250;10.410;2024-01-06T02:39:40;9.73;;;7.47;;
13388;SDS011;6764;53.250;10.410;2024-01-06T02:42:06;8.80;;;7.30;;
13388;SDS011;6764;53.250;10.410;2024-01-06T02:44:31;10.40;;;7.47;;
13388;SDS011;6764;53.250;10.410;2024-01-06T02:46:57;9.13;;;6.93;;
13388;SDS011;6764;53.250;10.410;2024-01-06T02:49:22;9.27;;;7.00;;
13388;SDS011;6764;53.250;10.410;2024-01-06T02:51:48;11.00;;;8.13;;
13388;SDS011;6764;53.250;10.410;2024-01-06T02:54:14;10.23;;;7.53;;
13388;SDS011;6764;53.250;10.410;2024-01-06T02:56:39;10.53;;;7.53;;
13388;SDS011;6764;53.250;10.410;2024-01-06T02:59:05;10.30;;;7.40;;
13388;SDS011;6764;53.250;10.410;2024-01-06T03:01:31;7.90;;;6.87;;
13388;SDS011;6764;53.250;10.410;2024-01-06T03:03:56;8.97;;;7.50;;
13388;SDS011;6764;53.250;10.410;2024-01-06T03:06:22;8.50;;;6.93;;
13388;SDS011;6764;53.250;10.410;2024-01-06T03:08:48;10.03;;;6.93;;
13388;SDS011;6764;53.250;10.410;2024-01-06T03:11:13;7.87;;;7.07;;
13388;SDS011;6764;53.250;10.410;2024-01-06T03:13:39;13.30;;;7.60;;
13388;SDS011;6764;53.250;10.410;2024-01-06T03:16:05;11.17;;;8.30;;
13388;SDS011;6764;53.250;10.410;2024-01-06T03:18:31;11.23;;;7.47;;
13388;SDS011;6764;53.250;10.410;2024-01-06T03:20:56;7.63;;;6.77;;
13388;SDS011;6764;53.250;10.410;2024-01-06T03:23:22;9.83;;;7.17;;
13388;SDS011;6764;53.250;10.410;2024-01-06T03:25:47;8.20;;;6.70;;
13388;SDS011;6764;53.250;10.410;2024-01-06T03:28:13;8.83;;;7.30;;
13388;SDS011;6764;53.250;10.410;2024-01-06T03:30:39;9.13;;;7.03;;
13388;SDS011;6764;53.250;10.410;2024-01-06T03:33:05;12.20;;;8.33;;
13388;SDS011;6764;53.250;10.410;2024-01-06T03:35:31;9.10;;;7.03;;
13388;SDS011;6764;53.250;10.410;2024-01-06T03:37:57;10.27;;;7.83;;
13388;SDS011;6764;53.250;10.410;2024-01-06T03:40:22;8.33;;;7.33;;
13388;SDS011;6764;53.250;10.410;2024-01-06T03:42:48;8.83;;;7.03;;
13388;SDS011;6764;53.250;10.410;2024-01-06T03:45:14;9.37;;;6.93;;
13388;SDS011;6764;53.250;10.410;2024-01-06T03:47:39;9.57;;;6.67;;
13388;SDS011;6764;53.250;10.410;2024-01-06T03:50:05;8.23;;;7.07;;
13388;SDS011;6764;53.250;10.410;2024-01-06T03:52:31;8.90;;;7.10;;
13388;SDS011;6764;53.250;10.410;2024-01-06T03:54:56;8.50;;;6.80;;
13388;SDS011;6764;53.250;10.410;2024-01-06T03:57:22;10.80;;;6.80;;
13388;SDS011;6764;53.250;10.410;2024-01-06T03:59:48;7.97;;;6.50;;
13388;SDS011;6764;53.250;10.410;2024-01-06T04:02:13;9.03;;;6.60;;
13388;SDS011;6764;53.250;10.410;2024-01-06T04:04:39;8.50;;;6.63;;
13388;SDS011;6764;53.250;10.410;2024-01-06T04:07:04;10.03;;;7.03;;
13388;SDS011;6764;53.250;10.410;2024-01-06T04:09:31;8.03;;;6.63;;
13388;SDS011;6764;53.250;10.410;2024-01-06T04:11:57;8.67;;;6.67;;
13388;SDS011;6764;53.250;10.410;2024-01-06T04:14:23;9.40;;;6.53;;
13388;SDS011;6764;53.250;10.410;2024-01-06T04:16:48;9.73;;;6.40;;
13388;SDS011;6764;53.250;10.410;2024-01-06T04:19:14;9.60;;;7.10;;
13388;SDS011;6764;53.250;10.410;2024-01-06T04:21:40;7.73;;;6.50;;
13388;SDS011;6764;53.250;10.410;2024-01-06T04:24:05;8.67;;;7.20;;
13388;SDS011;6764;53.250;10.410;2024-01-06T04:26:31;9.73;;;7.03;;
13388;SDS011;6764;53.250;10.410;2024-01-06T04:28:57;10.70;;;8.00;;
13388;SDS011;6764;53.250;10.410;2024-01-06T04:31:22;8.13;;;6.90;;
13388;SDS011;6764;53.250;10.410;2024-01-06T04:33:48;9.30;;;7.83;;
13388;SDS011;6764;53.250;10.410;2024-01-06T04:36:14;8.80;;;6.77;;
13388;SDS011;6764;53.250;10.410;2024-01-06T04:38:39;8.63;;;6.57;;
13388;SDS011;6764;53.250;10.410;2024-01-06T04:41:05;7.70;;;6.47;;
13388;SDS011;6764;53.250;10.410;2024-01-06T04:43:30;7.83;;;6.27;;
13388;SDS011;6764;53.250;10.410;2024-01-06T04:45:56;8.13;;;6.63;;
13388;SDS011;6764;53.250;10.410;2024-01-06T04:48:24;8.77;;;7.40;;
13388;SDS011;6764;53.250;10.410;2024-01-06T04:50:50;8.50;;;7.07;;
13388;SDS011;6764;53.250;10.410;2024-01-06T04:53:15;9.73;;;7.07;;
13388;SDS011;6764;53.250;10.410;2024-01-06T04:55:41;9.17;;;7.30;;
13388;SDS011;6764;53.250;10.410;2024-01-06T04:58:06;9.80;;;7.30;;
13388;SDS011;6764;53.250;10.410;2024-01-06T05:00:32;9.03;;;6.57;;
13388;SDS011;6764;53.250;10.410;2024-01-06T05:03:01;11.20;;;7.70;;
13388;SDS011;6764;53.250;10.410;2024-01-06T05:05:26;10.20;;;7.37;;
13388;SDS011;6764;53.250;10.410;2024-01-06T05:07:52;9.00;;;7.47;;
13388;SDS011;6764;53.250;10.410;2024-01-06T05:10:17;10.87;;;8.20;;
13388;SDS011;6764;53.250;10.410;2024-01-06T05:12:43;9.80;;;7.70;;
13388;SDS011;6764;53.250;10.410;2024-01-06T05:15:09;9.47;;;6.90;;
13388;SDS011;6764;53.250;10.410;2024-01-06T05:17:34;8.83;;;7.43;;
13388;SDS011;6764;53.250;10.410;2024-01-06T05:20:00;9.13;;;7.03;;
13388;SDS011;6764;53.250;10.410;2024-01-06T05:22:25;9.20;;;7.27;;
13388;SDS011;6764;53.250;10.410;2024-01-06T05:24:51;11.27;;;7.93;;
13388;SDS011;6764;53.250;10.410;2024-01-06T05:27:18;9.37;;;7.40;;
13388;SDS011;6764;53.250;10.410;2024-01-06T05:29:44;9.50;;;7.23;;
13388;SDS011;6764;53.250;10.410;2024-01-06T05:32:10;8.63;;;7.43;;
13388;SDS011;6764;53.250;10.410;2024-01-06T05:34:36;11.60;;;8.07;;
13388;SDS011;6764;53.250;10.410;2024-01-06T05:37:01;9.80;;;7.63;;
13388;SDS011;6764;53.250;10.410;2024-01-06T05:39:27;9.97;;;8.27;;
13388;SDS011;6764;53.250;10.410;2024-01-06T05:41:53;9.43;;;8.03;;
13388;SDS011;6764;53.250;10.410;2024-01-06T05:44:18;10.77;;;8.07;;
13388;SDS011;6764;53.250;10.410;2024-01-06T05:46:44;9.53;;;8.27;;
13388;SDS011;6764;53.250;10.410;2024-01-06T05:49:09;9.90;;;8.90;;
13388;SDS011;6764;53.250;10.410;2024-01-06T05:51:35;11.87;;;9.10;;
13388;SDS011;6764;53.250;10.410;2024-01-06T05:54:01;11.20;;;9.27;;
13388;SDS011;6764;53.250;10.410;2024-01-06T05:56:27;11.43;;;9.20;;
13388;SDS011;6764;53.250;10.410;2024-01-06T05:58:54;11.00;;;8.83;;
13388;SDS011;6764;53.250;10.410;2024-01-06T06:01:20;11.87;;;9.00;;
13388;SDS011;6764;53.250;10.410;2024-01-06T06:03:46;11.20;;;9.20;;
13388;SDS011;6764;53.250;10.410;2024-01-06T06:06:12;11.90;;;9.87;;
13388;SDS011;6764;53.250;10.410;2024-01-06T06:08:40;10.33;;;8.60;;
13388;SDS011;6764;53.250;10.410;2024-01-06T06:11:06;12.50;;;9.67;;
13388;SDS011;6764;53.250;10.410;2024-01-06T06:13:36;10.50;;;8.70;;
13388;SDS011;6764;53.250;10.410;2024-01-06T06:16:03;12.37;;;9.97;;
13388;SDS011;6764;53.250;10.410;2024-01-06T06:18:29;11.87;;;9.40;;
13388;SDS011;6764;53.250;10.410;2024-01-06T06:20:55;11.77;;;9.47;;
13388;SDS011;6764;53.250;10.410;2024-01-06T06:23:20;14.03;;;9.90;;
13388;SDS011;6764;53.250;10.410;2024-01-06T06:25:46;9.93;;;8.20;;
13388;SDS011;6764;53.250;10.410;2024-01-06T06:28:11;11.17;;;8.90;;
13388;SDS011;6764;53.250;10.410;2024-01-06T06:30:37;11.97;;;9.50;;
13388;SDS011;6764;53.250;10.410;2024-01-06T06:33:03;11.13;;;9.37;;
13388;SDS011;6764;53.250;10.410;2024-01-06T06:35:29;11.07;;;9.23;;
13388;SDS011;6764;53.250;10.410;2024-01-06T06:37:58;11.53;;;8.53;;
13388;SDS011;6764;53.250;10.410;2024-01-06T06:40:24;9.73;;;8.67;;
13388;SDS011;6764;53.250;10.410;2024-01-06T06:42:49;12.03;;;9.27;;
13388;SDS011;6764;53.250;10.410;2024-01-06T06:45:15;10.97;;;9.30;;
13388;SDS011;6764;53.250;10.410;2024-01-06T06:47:40;13.27;;;10.40;;
13388;SDS011;6764;53.250;10.410;2024-01-06T06:50:06;11.30;;;9.93;;
13388;SDS011;6764;53.250;10.410;2024-01-06T06:52:32;11.47;;;9.10;;
13388;SDS011;6764;53.250;10.410;2024-01-06T06:54:57;12.80;;;10.23;;
13388;SDS011;6764;53.250;10.410;2024-01-06T06:57:23;12.60;;;10.67;;
13388;SDS011;6764;53.250;10.410;2024-01-06T06:59:49;13.53;;;10.30;;
13388;SDS011;6764;53.250;10.410;2024-01-06T07:02:15;14.07;;;11.07;;
13388;SDS011;6764;53.250;10.410;2024-01-06T07:04:40;12.40;;;10.60;;
13388;SDS011;6764;53.250;10.410;2024-01-06T07:07:06;13.20;;;10.97;;
13388;SDS011;6764;53.250;10.410;2024-01-06T07:09:33;13.07;;;10.93;;
13388;SDS011;6764;53.250;10.410;2024-01-06T07:11:58;13.50;;;10.70;;
13388;SDS011;6764;53.250;10.410;2024-01-06T07:14:24;14.03;;;10.70;;
13388;SDS011;6764;53.250;10.410;2024-01-06T07:16:49;14.00;;;10.83;;
13388;SDS011;6764;53.250;10.410;2024-01-06T07:19:15;13.77;;;10.87;;
13388;SDS011;6764;53.250;10.410;2024-01-06T07:21:40;13.63;;;11.23;;
13388;SDS011;6764;53.250;10.410;2024-01-06T07:24:06;15.47;;;11.80;;
13388;SDS011;6764;53.250;10.410;2024-01-06T07:26:32;13.93;;;12.00;;
13388;SDS011;6764;53.250;10.410;2024-01-06T07:28:57;15.37;;;11.23;;
13388;SDS011;6764;53.250;10.410;2024-01-06T07:31:23;13.60;;;10.77;;
13388;SDS011;6764;53.250;10.410;2024-01-06T07:33:48;12.63;;;10.80;;
13388;SDS011;6764;53.250;10.410;2024-01-06T07:36:14;14.93;;;11.90;;
13388;SDS011;6764;53.250;10.410;2024-01-06T07:38:41;14.20;;;10.87;;
13388;SDS011;6764;53.250;10.410;2024-01-06T07:41:06;14.10;;;10.47;;
13388;SDS011;6764;53.250;10.410;2024-01-06T07:43:32;15.80;;;11.07;;
13388;SDS011;6764;53.250;10.410;2024-01-06T07:45:58;12.87;;;9.97;;
13388;SDS011;6764;53.250;10.410;2024-01-06T07:48:24;16.00;;;11.50;;
13388;SDS011;6764;53.250;10.410;2024-01-06T07:50:50;15.33;;;11.40;;
13388;SDS011;6764;53.250;10.410;2024-01-06T07:53:15;12.43;;;10.70;;
13388;SDS011;6764;53.250;10.410;2024-01-06T07:55:41;15.03;;;11.40;;
13388;SDS011;6764;53.250;10.410;2024-01-06T07:58:06;13.30;;;10.80;;
13388;SDS011;6764;53.250;10.410;2024-01-06T08:00:32;12.17;;;10.30;;
13388;SDS011;6764;53.250;10.410;2024-01-06T08:02:58;14.77;;;11.13;;
13388;SDS011;6764;53.250;10.410;2024-01-06T08:05:23;13.03;;;10.87;;
13388;SDS011;6764;53.250;10.410;2024-01-06T08:07:50;15.77;;;11.53;;
13388;SDS011;6764;53.250;10.410;2024-01-06T08:10:16;14.27;;;11.17;;
13388;SDS011;6764;53.250;10.410;2024-01-06T08:12:42;13.13;;;10.23;;
13388;SDS011;6764;53.250;10.410;2024-01-06T08:15:08;14.20;;;11.53;;
13388;SDS011;6764;53.250;10.410;2024-01-06T08:17:34;13.90;;;10.47;;
13388;SDS011;6764;53.250;10.410;2024-01-06T08:20:00;14.17;;;10.97;;
13388;SDS011;6764;53.250;10.410;2024-01-06T08:22:26;13.60;;;11.00;;
13388;SDS011;6764;53.250;10.410;2024-01-06T08:24:52;12.97;;;10.47;;
13388;SDS011;6764;53.250;10.410;2024-01-06T08:27:17;13.87;;;10.77;;
13388;SDS011;6764;53.250;10.410;2024-01-06T08:29:43;13.37;;;9.67;;
13388;SDS011;6764;53.250;10.410;2024-01-06T08:32:09;15.70;;;11.00;;
13388;SDS011;6764;53.250;10.410;2024-01-06T08:34:36;14.23;;;11.20;;
13388;SDS011;6764;53.250;10.410;2024-01-06T08:37:02;12.17;;;10.50;;
13388;SDS011;6764;53.250;10.410;2024-01-06T08:39:29;12.77;;;11.37;;
13388;SDS011;6764;53.250;10.410;2024-01-06T08:41:54;14.87;;;11.80;;
13388;SDS011;6764;53.250;10.410;2024-01-06T08:44:20;13.90;;;10.43;;
13388;SDS011;6764;53.250;10.410;2024-01-06T08:46:45;16.30;;;11.50;;
13388;SDS011;6764;53.250;10.410;2024-01-06T08:49:11;11.60;;;10.33;;
13388;SDS011;6764;53.250;10.410;2024-01-06T08:51:36;12.37;;;10.33;;
13388;SDS011;6764;53.250;10.410;2024-01-06T08:54:02;14.47;;;10.47;;
13388;SDS011;6764;53.250;10.410;2024-01-06T08:56:31;15.73;;;10.37;;
13388;SDS011;6764;53.250;10.410;2024-01-06T08:58:59;12.73;;;10.40;;
13388;SDS011;6764;53.250;10.410;2024-01-06T09:01:24;15.73;;;11.37;;
13388;SDS011;6764;53.250;10.410;2024-01-06T09:03:50;15.40;;;11.87;;
13388;SDS011;6764;53.250;10.410;2024-01-06T09:06:16;14.50;;;11.43;;
13388;SDS011;6764;53.250;10.410;2024-01-06T09:08:41;15.03;;;11.00;;
13388;SDS011;6764;53.250;10.410;2024-01-06T09:11:07;14.97;;;11.27;;
13388;SDS011;6764;53.250;10.410;2024-01-06T09:13:32;17.10;;;10.83;;
13388;SDS011;6764;53.250;10.410;2024-01-06T09:15:58;11.90;;;10.60;;
13388;SDS011;6764;53.250;10.410;2024-01-06T09:18:25;13.47;;;10.13;;
13388;SDS011;6764;53.250;10.410;2024-01-06T09:20:51;12.50;;;10.33;;
13388;SDS011;6764;53.250;10.410;2024-01-06T09:23:17;14.33;;;10.63;;
13388;SDS011;6764;53.250;10.410;2024-01-06T09:25:43;13.37;;;10.80;;
13388;SDS011;6764;53.250;10.410;2024-01-06T09:28:09;11.93;;;10.43;;
13388;SDS011;6764;53.250;10.410;2024-01-06T09:30:35;12.30;;;10.00;;
13388;SDS011;6764;53.250;10.410;2024-01-06T09:33:02;13.37;;;9.67;;
13388;SDS011;6764;53.250;10.410;2024-01-06T09:35:28;13.67;;;10.63;;
13388;SDS011;6764;53.250;10.410;2024-01-06T09:37:53;12.50;;;10.37;;
13388;SDS011;6764;53.250;10.410;2024-01-06T09:40:22;13.13;;;11.07;;
13388;SDS011;6764;53.250;10.410;2024-01-06T09:42:49;13.53;;;10.83;;
13388;SDS011;6764;53.250;10.410;2024-01-06T09:45:15;12.70;;;10.10;;
13388;SDS011;6764;53.250;10.410;2024-01-06T09:47:41;16.23;;;11.00;;
13388;SDS011;6764;53.250;10.410;2024-01-06T09:50:10;12.87;;;10.13;;
13388;SDS011;6764;53.250;10.410;2024-01-06T09:52:40;12.00;;;9.93;;
13388;SDS011;6764;53.250;10.410;2024-01-06T09:55:09;12.87;;;10.27;;
13388;SDS011;6764;53.250;10.410;2024-01-06T09:57:37;11.77;;;10.03;;
13388;SDS011;6764;53.250;10.410;2024-01-06T10:00:03;11.70;;;9.60;;
13388;SDS011;6764;53.250;10.410;2024-01-06T10:02:29;14.90;;;11.00;;
13388;SDS011;6764;53.250;10.410;2024-01-06T10:04:58;12.67;;;9.80;;
13388;SDS011;6764;53.250;10.410;2024-01-06T10:07:25;12.43;;;9.60;;
13388;SDS011;6764;53.250;10.410;2024-01-06T10:09:51;12.23;;;10.03;;
13388;SDS011;6764;53.250;10.410;2024-01-06T10:12:23;11.77;;;9.83;;
13388;SDS011;6764;53.250;10.410;2024-01-06T10:14:51;13.20;;;10.50;;
13388;SDS011;6764;53.250;10.410;2024-01-06T10:17:17;18.83;;;11.87;;
13388;SDS011;6764;53.250;10.410;2024-01-06T10:19:45;12.53;;;9.57;;
13388;SDS011;6764;53.250;10.410;2024-01-06T10:22:13;12.70;;;9.77;;
13388;SDS011;6764;53.250;10.410;2024-01-06T10:24:38;11.90;;;9.80;;
13388;SDS011;6764;53.250;10.410;2024-01-06T10:27:04;11.97;;;9.90;;
13388;SDS011;6764;53.250;10.410;2024-01-06T10:29:30;12.87;;;10.40;;
13388;SDS011;6764;53.250;10.410;2024-01-06T10:31:57;11.00;;;9.30;;
13388;SDS011;6764;53.250;10.410;2024-01-06T10:34:23;14.70;;;10.70;;
13388;SDS011;6764;53.250;10.410;2024-01-06T10:36:49;13.20;;;11.13;;
13388;SDS011;6764;53.250;10.410;2024-01-06T10:39:17;13.77;;;10.23;;
13388;SDS011;6764;53.250;10.410;2024-01-06T10:41:43;15.27;;;9.47;;
13388;SDS011;6764;53.250;10.410;2024-01-06T10:44:10;11.47;;;9.50;;
13388;SDS011;6764;53.250;10.410;2024-01-06T10:46:36;14.37;;;10.37;;
13388;SDS011;6764;53.250;10.410;2024-01-06T10:49:04;14.40;;;11.53;;
13388;SDS011;6764;53.250;10.410;2024-01-06T10:51:33;11.80;;;10.27;;
13388;SDS011;6764;53.250;10.410;2024-01-06T10:54:00;11.60;;;9.90;;
13388;SDS011;6764;53.250;10.410;2024-01-06T10:56:36;12.57;;;9.90;;
13388;SDS011;6764;53.250;10.410;2024-01-06T10:59:03;13.80;;;10.93;;
13388;SDS011;6764;53.250;10.410;2024-01-06T11:01:29;14.07;;;10.60;;
13388;SDS011;6764;53.250;10.410;2024-01-06T11:03:56;16.00;;;11.47;;
13388;SDS011;6764;53.250;10.410;2024-01-06T11:06:23;13.73;;;10.07;;
13388;SDS011;6764;53.250;10.410;2024-01-06T11:11:22;12.93;;;10.23;;
13388;SDS011;6764;53.250;10.410;2024-01-06T11:13:48;14.73;;;10.83;;
13388;SDS011;6764;53.250;10.410;2024-01-06T11:16:48;15.90;;;11.60;;
13388;SDS011;6764;53.250;10.410;2024-01-06T11:19:53;16.40;;;11.13;;
13388;SDS011;6764;53.250;10.410;2024-01-06T11:24:57;14.40;;;11.07;;
13388;SDS011;6764;53.250;10.410;2024-01-06T11:27:33;36.57;;;25.70;;
13388;SDS011;6764;53.250;10.410;2024-01-06T11:30:01;13.87;;;11.13;;
13388;SDS011;6764;53.250;10.410;2024-01-06T11:32:32;17.57;;;13.83;;
13388;SDS011;6764;53.250;10.410;2024-01-06T11:40:22;22.17;;;15.33;;
13388;SDS011;6764;53.250;10.410;2024-01-06T11:42:59;17.97;;;14.03;;
13388;SDS011;6764;53.250;10.410;2024-01-06T11:45:30;13.73;;;12.30;;
13388;SDS011;6764;53.250;10.410;2024-01-06T11:48:01;14.53;;;11.10;;
13388;SDS011;6764;53.250;10.410;2024-01-06T11:50:29;15.30;;;11.80;;
13388;SDS011;6764;53.250;10.410;2024-01-06T11:52:57;13.47;;;10.03;;
13388;SDS011;6764;53.250;10.410;2024-01-06T11:55:24;15.87;;;12.13;;
13388;SDS011;6764;53.250;10.410;2024-01-06T11:57:52;12.23;;;10.37;;
13388;SDS011;6764;53.250;10.410;2024-01-06T12:00:19;13.67;;;10.73;;
13388;SDS011;6764;53.250;10.410;2024-01-06T12:02:45;12.73;;;10.27;;
13388;SDS011;6764;53.250;10.410;2024-01-06T12:05:13;13.77;;;10.90;;
13388;SDS011;6764;53.250;10.410;2024-01-06T12:07:43;13.07;;;10.00;;
13388;SDS011;6764;53.250;10.410;2024-01-06T12:10:19;12.67;;;9.30;;
13388;SDS011;6764;53.250;10.410;2024-01-06T12:13:00;13.67;;;10.57;;
13388;SDS011;6764;53.250;10.410;2024-01-06T12:15:30;10.80;;;8.90;;
13388;SDS011;6764;53.250;10.410;2024-01-06T12:17:57;13.13;;;9.33;;
13388;SDS011;6764;53.250;10.410;2024-01-06T12:20:24;11.23;;;9.23;;
13388;SDS011;6764;53.250;10.410;2024-01-06T12:22:51;10.93;;;9.37;;
13388;SDS011;6764;53.250;10.410;2024-01-06T12:25:18;10.70;;;8.93;;
13388;SDS011;6764;53.250;10.410;2024-01-06T12:27:46;17.80;;;14.87;;
13388;SDS011;6764;53.250;10.410;2024-01-06T12:30:14;11.33;;;9.33;;
13388;SDS011;6764;53.250;10.410;2024-01-06T12:32:44;11.77;;;9.47;;
13388;SDS011;6764;53.250;10.410;2024-01-06T12:35:11;11.00;;;9.20;;
13388;SDS011;6764;53.250;10.410;2024-01-06T12:37:37;11.07;;;8.90;;
13388;SDS011;6764;53.250;10.410;2024-01-06T12:40:03;10.23;;;9.20;;
13388;SDS011;6764;53.250;10.410;2024-01-06T12:42:30;11.70;;;10.10;;
13388;SDS011;6764;53.250;10.410;2024-01-06T12:44:56;9.90;;;8.47;;
13388;SDS011;6764;53.250;10.410;2024-01-06T12:47:21;12.80;;;9.97;;
13388;SDS011;6764;53.250;10.410;2024-01-06T12:49:48;11.83;;;9.03;;
13388;SDS011;6764;53.250;10.410;2024-01-06T12:52:13;12.47;;;10.00;;
13388;SDS011;6764;53.250;10.410;2024-01-06T12:54:39;12.83;;;9.20;;
13388;SDS011;6764;53.250;10.410;2024-01-06T12:57:05;10.77;;;9.67;;
13388;SDS011;6764;53.250;10.410;2024-01-06T12:59:31;9.30;;;8.13;;
13388;SDS011;6764;53.250;10.410;2024-01-06T13:01:57;9.60;;;8.60;;
13388;SDS011;6764;53.250;10.410;2024-01-06T13:04:22;11.63;;;8.53;;
13388;SDS011;6764;53.250;10.410;2024-01-06T13:06:48;11.63;;;9.33;;
13388;SDS011;6764;53.250;10.410;2024-01-06T13:09:14;11.40;;;9.33;;
13388;SDS011;6764;53.250;10.410;2024-01-06T13:11:42;12.40;;;9.47;;
13388;SDS011;6764;53.250;10.410;2024-01-06T13:14:11;11.33;;;8.70;;
13388;SDS011;6764;53.250;10.410;2024-01-06T13:16:37;11.03;;;8.90;;
13388;SDS011;6764;53.250;10.410;2024-01-06T13:19:03;11.47;;;9.33;;
13388;SDS011;6764;53.250;10.410;2024-01-06T13:21:29;9.60;;;7.40;;
13388;SDS011;6764;53.250;10.410;2024-01-06T13:23:55;11.20;;;9.33;;
13388;SDS011;6764;53.250;10.410;2024-01-06T13:26:26;11.30;;;8.83;;
13388;SDS011;6764;53.250;10.410;2024-01-06T13:28:52;9.33;;;8.33;;
13388;SDS011;6764;53.250;10.410;2024-01-06T13:31:18;10.13;;;9.03;;
13388;SDS011;6764;53.250;10.410;2024-01-06T13:33:44;13.73;;;11.67;;
13388;SDS011;6764;53.250;10.410;2024-01-06T13:36:09;10.47;;;7.93;;
13388;SDS011;6764;53.250;10.410;2024-01-06T13:38:35;10.47;;;8.70;;
13388;SDS011;6764;53.250;10.410;2024-01-06T13:41:01;12.10;;;8.33;;
13388;SDS011;6764;53.250;10.410;2024-01-06T13:43:28;11.33;;;8.20;;
13388;SDS011;6764;53.250;10.410;2024-01-06T13:45:53;10.00;;;7.77;;
13388;SDS011;6764;53.250;10.410;2024-01-06T13:48:19;10.13;;;8.60;;
13388;SDS011;6764;53.250;10.410;2024-01-06T13:50:45;10.83;;;8.70;;
13388;SDS011;6764;53.250;10.410;2024-01-06T13:53:11;10.47;;;7.80;;
13388;SDS011;6764;53.250;10.410;2024-01-06T13:55:37;10.10;;;7.70;;
13388;SDS011;6764;53.250;10.410;2024-01-06T13:58:03;11.83;;;7.73;;
13388;SDS011;6764;53.250;10.410;2024-01-06T14:00:29;11.17;;;7.80;;
13388;SDS011;6764;53.250;10.410;2024-01-06T14:02:54;11.63;;;8.80;;
13388;SDS011;6764;53.250;10.410;2024-01-06T14:05:21;10.37;;;7.47;;
13388;SDS011;6764;53.250;10.410;2024-01-06T14:07:47;9.03;;;7.50;;
13388;SDS011;6764;53.250;10.410;2024-01-06T14:10:15;11.40;;;8.73;;
13388;SDS011;6764;53.250;10.410;2024-01-06T14:12:41;11.50;;;8.03;;
13388;SDS011;6764;53.250;10.410;2024-01-06T14:15:07;11.23;;;8.50;;
13388;SDS011;6764;53.250;10.410;2024-01-06T14:17:34;11.03;;;8.67;;
13388;SDS011;6764;53.250;10.410;2024-01-06T14:19:59;10.20;;;8.53;;
13388;SDS011;6764;53.250;10.410;2024-01-06T14:22:26;12.87;;;8.80;;
13388;SDS011;6764;53.250;10.410;2024-01-06T14:24:52;11.80;;;8.37;;
13388;SDS011;6764;53.250;10.410;2024-01-06T14:27:18;9.87;;;7.50;;
13388;SDS011;6764;53.250;10.410;2024-01-06T14:29:44;8.30;;;7.00;;
13388;SDS011;6764;53.250;10.410;2024-01-06T14:32:11;13.90;;;9.97;;
13388;SDS011;6764;53.250;10.410;2024-01-06T14:34:38;8.73;;;6.90;;
13388;SDS011;6764;53.250;10.410;2024-01-06T14:37:04;8.40;;;7.47;;
13388;SDS011;6764;53.250;10.410;2024-01-06T14:39:30;8.57;;;6.67;;
13388;SDS011;6764;53.250;10.410;2024-01-06T14:41:55;8.53;;;6.53;;